createdAt,value
2022-10-10T00:01:25.435Z,101428.59
2022-10-10T00:03:55.296Z,101425.47
2022-10-10T00:06:31.935Z,101420.64
2022-10-10T00:09:05.955Z,101415.13
2022-10-10T00:11:35.789Z,101407.88
2022-10-10T00:14:05.775Z,101401.48
2022-10-10T00:16:34.873Z,101398.02
2022-10-10T00:19:08.316Z,101399.08
2022-10-10T00:21:37.372Z,101398.22
2022-10-10T00:24:10.767Z,101395.28
2022-10-10T00:26:39.856Z,101394.05
2022-10-10T00:29:08.860Z,101388.32
2022-10-10T00:31:37.641Z,101381.91
2022-10-10T00:34:06.374Z,101379.13
2022-10-10T00:36:35.225Z,101378.45
2022-10-10T00:39:04.010Z,101370.66
2022-10-10T00:41:32.882Z,101373.23
2022-10-10T00:44:11.510Z,101375.33
2022-10-10T00:46:41.128Z,101372.77
2022-10-10T00:49:27.852Z,101366.03
2022-10-10T00:52:00.146Z,101360.16
2022-10-10T00:54:42.076Z,101363.10
2022-10-10T00:57:14.808Z,101360.91
2022-10-10T00:59:46.486Z,101358.50
2022-10-10T01:02:15.300Z,101355.40
2022-10-10T01:04:48.944Z,101352.46
2022-10-10T01:07:30.382Z,101355.06
2022-10-10T01:10:17.784Z,101348.88
2022-10-10T01:13:34.966Z,101347.49
2022-10-10T01:16:57.984Z,101347.90
2022-10-10T01:20:10.855Z,101343.46
2022-10-10T01:23:02.037Z,101336.41
2022-10-10T01:25:59.008Z,101335.58
2022-10-10T01:29:06.208Z,101333.84
2022-10-10T01:31:40.000Z,101333.30
2022-10-10T01:34:29.798Z,101333.65
2022-10-10T01:37:21.057Z,101335.05
2022-10-10T01:40:01.614Z,101338.16
2022-10-10T01:42:53.210Z,101338.51
2022-10-10T01:45:23.217Z,101337.98
2022-10-10T01:47:56.212Z,101340.20
2022-10-10T01:50:28.168Z,101331.36
2022-10-10T01:53:26.613Z,101327.54
2022-10-10T01:56:43.031Z,101324.42
2022-10-10T01:59:24.873Z,101319.06
2022-10-10T02:02:33.399Z,101313.20
2022-10-10T02:05:17.188Z,101310.45
2022-10-10T02:08:09.092Z,101310.29
2022-10-10T02:10:51.407Z,101309.06
2022-10-10T02:13:28.767Z,101305.43
2022-10-10T02:16:10.414Z,101302.13
2022-10-10T02:18:47.799Z,101299.19
2022-10-10T02:21:18.087Z,101296.61
2022-10-10T02:23:52.894Z,101293.14
2022-10-10T02:26:24.110Z,101292.09
2022-10-10T02:29:16.010Z,101289.83
2022-10-10T02:32:07.440Z,101295.39
2022-10-10T02:34:45.567Z,101296.28
2022-10-10T02:37:18.897Z,101292.82
2022-10-10T02:39:58.312Z,101296.79
2022-10-10T02:42:29.412Z,101297.67
2022-10-10T02:44:58.429Z,101293.16
2022-10-10T02:47:27.629Z,101293.86
2022-10-10T02:49:56.476Z,101293.69
2022-10-10T02:52:27.237Z,101294.36
2022-10-10T02:54:56.025Z,101290.59
2022-10-10T02:57:24.761Z,101289.75
2022-10-10T02:59:53.449Z,101285.63
2022-10-10T03:02:24.001Z,101287.36
2022-10-10T03:04:55.132Z,101285.11
2022-10-10T03:07:25.392Z,101284.27
2022-10-10T03:09:54.151Z,101289.11
2022-10-10T03:12:23.445Z,101282.73
2022-10-10T03:14:52.299Z,101280.50
2022-10-10T03:17:21.027Z,101278.43
2022-10-10T03:19:49.791Z,101274.81
2022-10-10T03:22:18.659Z,101269.80
2022-10-10T03:24:47.468Z,101260.49
2022-10-10T03:27:16.385Z,101258.80
2022-10-10T03:29:45.254Z,101257.25
2022-10-10T03:32:18.307Z,101252.77
2022-10-10T03:34:47.363Z,101247.82
2022-10-10T03:37:16.209Z,101240.73
2022-10-10T03:39:47.202Z,101240.75
2022-10-10T03:42:17.363Z,101243.33
2022-10-10T03:44:46.276Z,101242.83
2022-10-10T03:47:17.418Z,101237.81
2022-10-10T03:49:48.464Z,101236.59
2022-10-10T03:52:22.008Z,101232.81
2022-10-10T03:54:52.278Z,101231.43
2022-10-10T03:57:21.126Z,101232.98
2022-10-10T03:59:50.135Z,101231.80
2022-10-10T04:02:18.947Z,101230.92
2022-10-10T04:04:47.746Z,101229.73
2022-10-10T04:07:17.056Z,101225.27
2022-10-10T04:09:48.141Z,101222.68
2022-10-10T04:12:17.152Z,101219.94
2022-10-10T04:14:48.474Z,101211.66
2022-10-10T04:17:17.421Z,101204.25
2022-10-10T04:19:46.436Z,101200.80
2022-10-10T04:22:16.674Z,101204.77
2022-10-10T04:24:45.828Z,101199.95
2022-10-10T04:27:14.632Z,101191.84
2022-10-10T04:29:43.473Z,101189.95
2022-10-10T04:32:12.310Z,101186.84
2022-10-10T04:34:41.085Z,101185.11
2022-10-10T04:37:10.029Z,101182.87
2022-10-10T04:39:38.931Z,101178.71
2022-10-10T04:42:07.683Z,101172.51
2022-10-10T04:44:36.477Z,101173.02
2022-10-10T04:47:05.352Z,101173.02
2022-10-10T04:49:34.060Z,101169.57
2022-10-10T04:52:02.704Z,101169.21
2022-10-10T04:54:31.389Z,101164.71
2022-10-10T04:57:00.178Z,101167.13
2022-10-10T04:59:28.961Z,101164.53
2022-10-10T05:02:01.463Z,101162.80
2022-10-10T05:04:30.923Z,101162.11
2022-10-10T05:06:59.724Z,101161.42
2022-10-10T05:09:28.625Z,101162.98
2022-10-10T05:11:57.370Z,101162.63
2022-10-10T05:14:26.703Z,101160.55
2022-10-10T05:16:55.592Z,101161.08
2022-10-10T05:19:24.632Z,101160.91
2022-10-10T05:21:53.360Z,101161.43
2022-10-10T05:24:23.269Z,101158.68
2022-10-10T05:26:52.241Z,101157.80
2022-10-10T05:29:23.639Z,101157.83
2022-10-10T05:32:04.415Z,101154.91
2022-10-10T05:34:41.720Z,101151.48
2022-10-10T05:37:10.694Z,101146.30
2022-10-10T05:39:52.356Z,101141.30
2022-10-10T05:42:23.651Z,101141.46
2022-10-10T05:44:53.777Z,101138.17
2022-10-10T05:47:27.566Z,101134.18
2022-10-10T05:50:03.335Z,101137.30
2022-10-10T05:52:35.545Z,101136.23
2022-10-10T05:55:16.638Z,101133.10
2022-10-10T05:57:50.674Z,101131.88
2022-10-10T06:00:22.136Z,101133.23
2022-10-10T06:02:53.541Z,101127.51
2022-10-10T06:05:22.989Z,101126.95
2022-10-10T06:08:05.734Z,101124.49
2022-10-10T06:10:41.874Z,101121.71
2022-10-10T06:13:20.320Z,101119.77
2022-10-10T06:15:52.677Z,101122.64
2022-10-10T06:18:21.702Z,101127.75
2022-10-10T06:20:50.655Z,101124.23
2022-10-10T06:23:20.308Z,101126.77
2022-10-10T06:25:52.813Z,101125.16
2022-10-10T06:28:22.357Z,101119.70
2022-10-10T06:30:51.747Z,101120.83
2022-10-10T06:33:20.639Z,101119.34
2022-10-10T06:35:49.910Z,101118.53
2022-10-10T06:38:19.434Z,101117.55
2022-10-10T06:40:51.304Z,101114.13
2022-10-10T06:43:20.159Z,101110.77
2022-10-10T06:45:51.206Z,101104.41
2022-10-10T06:48:20.476Z,101103.89
2022-10-10T06:51:00.327Z,101100.57
2022-10-10T06:53:36.703Z,101101.02
2022-10-10T06:56:05.954Z,101095.44
2022-10-10T06:58:35.669Z,101097.92
2022-10-10T07:01:05.324Z,101097.05
2022-10-10T07:03:34.246Z,101096.31
2022-10-10T07:06:07.133Z,101093.92
2022-10-10T07:09:17.776Z,101096.41
2022-10-10T07:11:58.668Z,101091.67
2022-10-10T07:14:27.812Z,101091.84
2022-10-10T07:16:56.764Z,101093.65
2022-10-10T07:19:26.160Z,101086.60
2022-10-10T07:22:01.237Z,101089.02
2022-10-10T07:24:32.571Z,101085.40
2022-10-10T07:27:07.822Z,101088.92
2022-10-10T07:29:37.718Z,101085.88
2022-10-10T07:32:06.638Z,101081.48
2022-10-10T07:34:38.989Z,101081.52
2022-10-10T07:37:07.882Z,101082.89
2022-10-10T07:39:36.995Z,101079.16
2022-10-10T07:42:06.005Z,101077.56
2022-10-10T07:44:35.014Z,101079.05
2022-10-10T07:47:04.077Z,101077.16
2022-10-10T07:49:34.303Z,101073.66
2022-10-10T07:52:03.268Z,101072.67
2022-10-10T07:54:33.450Z,101075.86
2022-10-10T07:57:02.310Z,101073.91
2022-10-10T07:59:31.196Z,101069.38
2022-10-10T08:02:00.216Z,101066.88
2022-10-10T08:04:29.163Z,101067.10
2022-10-10T08:06:58.166Z,101065.19
2022-10-10T08:09:26.959Z,101066.19
2022-10-10T08:11:55.860Z,101065.11
2022-10-10T08:14:26.327Z,101066.89
2022-10-10T08:16:57.796Z,101064.84
2022-10-10T08:19:29.595Z,101065.79
2022-10-10T08:22:07.842Z,101060.05
2022-10-10T08:24:40.489Z,101060.54
2022-10-10T08:27:14.790Z,101060.86
2022-10-10T08:29:47.724Z,101058.67
2022-10-10T08:32:24.267Z,101057.23
2022-10-10T08:40:05.162Z,101047.29
2022-10-10T08:42:51.735Z,101045.58
2022-10-10T08:45:26.638Z,101042.33
2022-10-10T08:48:07.262Z,101038.73
2022-10-10T08:50:55.830Z,101037.09
2022-10-10T08:53:44.279Z,101033.24
2022-10-10T08:56:20.965Z,101028.86
2022-10-10T08:58:57.773Z,101027.38
2022-10-10T09:02:17.667Z,101032.10
2022-10-10T09:04:30.531Z,101030.48
2022-10-10T09:07:45.801Z,101029.79
2022-10-10T09:11:09.118Z,101023.06
2022-10-10T09:14:00.662Z,101018.88
2022-10-10T09:17:01.909Z,101017.74
2022-10-10T09:19:50.332Z,101012.38
2022-10-10T09:22:25.731Z,101011.34
2022-10-10T09:25:03.906Z,101015.73
2022-10-10T09:27:40.638Z,101013.80
2022-10-10T09:30:21.249Z,101011.86
2022-10-10T09:33:07.665Z,101009.38
2022-10-10T09:35:39.366Z,101002.04
2022-10-10T09:38:11.044Z,100999.36
2022-10-10T09:40:46.820Z,100996.88
2022-10-10T09:43:21.325Z,100994.28
2022-10-10T09:45:54.272Z,100990.27
2022-10-10T09:48:31.936Z,100987.58
2022-10-10T09:51:04.665Z,100986.55
2022-10-10T09:53:33.361Z,100981.63
2022-10-10T09:56:04.776Z,100979.30
2022-10-10T09:58:46.776Z,100978.65
2022-10-10T10:01:21.352Z,100982.41
2022-10-10T10:04:27.796Z,100982.42
2022-10-10T10:07:29.459Z,100976.86
2022-10-10T10:10:27.391Z,100970.15
2022-10-10T10:12:56.980Z,100964.81
2022-10-10T10:15:32.217Z,100969.14
2022-10-10T10:18:13.560Z,100962.83
2022-10-10T10:20:46.987Z,100958.83
2022-10-10T10:24:00.429Z,100953.08
2022-10-10T10:26:41.519Z,100952.17
2022-10-10T10:29:28.467Z,100947.56
2022-10-10T10:32:29.872Z,100943.48
2022-10-10T10:35:51.170Z,100938.73
2022-10-10T10:38:29.602Z,100932.05
2022-10-10T10:41:09.549Z,100921.78
2022-10-10T10:43:56.343Z,100920.79
2022-10-10T10:46:31.729Z,100914.00
2022-10-10T10:49:36.465Z,100908.59
2022-10-10T10:52:39.179Z,100904.41
2022-10-10T10:55:35.868Z,100898.20
2022-10-10T11:01:58.128Z,100885.13
2022-10-10T11:05:23.759Z,100880.40
2022-10-10T11:07:29.704Z,100873.86
2022-10-10T11:10:36.250Z,100872.98
2022-10-10T11:13:24.563Z,100872.60
2022-10-10T11:16:43.697Z,100874.47
2022-10-10T11:19:10.772Z,100867.46
2022-10-10T11:21:48.244Z,100867.59
2022-10-10T11:24:43.215Z,100868.27
2022-10-10T11:27:24.951Z,100862.58
2022-10-10T11:29:56.556Z,100862.58
2022-10-10T11:32:40.467Z,100853.46
2022-10-10T11:35:36.851Z,100853.37
2022-10-10T11:38:31.142Z,100843.84
2022-10-10T11:41:26.846Z,100841.06
2022-10-10T11:44:18.032Z,100835.18
2022-10-10T11:47:13.497Z,100834.10
2022-10-10T11:50:10.679Z,100823.11
2022-10-10T11:52:56.096Z,100821.05
2022-10-10T11:55:58.369Z,100814.33
2022-10-10T11:58:50.936Z,100808.38
2022-10-10T12:01:30.244Z,100809.78
2022-10-10T12:03:58.932Z,100806.00
2022-10-10T12:07:02.734Z,100798.39
2022-10-10T12:09:43.864Z,100796.17
2022-10-10T12:12:28.804Z,100792.99
2022-10-10T12:15:04.264Z,100791.89
2022-10-10T12:17:38.512Z,100783.21
2022-10-10T12:20:27.493Z,100783.23
2022-10-10T12:23:33.192Z,100779.07
2022-10-10T12:26:02.332Z,100775.17
2022-10-10T12:28:58.238Z,100773.06
2022-10-10T12:31:40.247Z,100767.77
2022-10-10T12:34:48.499Z,100766.28
2022-10-10T12:38:04.869Z,100761.23
2022-10-10T12:40:35.514Z,100759.65
2022-10-10T12:43:40.508Z,100763.30
2022-10-10T12:46:23.221Z,100759.42
2022-10-10T12:49:22.467Z,100751.09
2022-10-10T12:52:22.767Z,100749.02
2022-10-10T12:54:54.178Z,100742.77
2022-10-10T12:57:43.592Z,100739.80
2022-10-10T13:00:25.591Z,100735.90
2022-10-10T13:03:02.564Z,100731.64
2022-10-10T13:05:36.110Z,100726.06
2022-10-10T13:08:14.673Z,100722.69
2022-10-10T13:10:51.933Z,100720.30
2022-10-10T13:13:21.073Z,100715.98
2022-10-10T13:15:58.123Z,100713.35
2022-10-10T13:18:59.088Z,100707.58
2022-10-10T13:21:34.207Z,100703.61
2022-10-10T13:24:06.550Z,100706.56
2022-10-10T13:26:51.426Z,100702.16
2022-10-10T13:29:31.532Z,100706.27
2022-10-10T13:32:06.132Z,100703.42
2022-10-10T13:34:41.737Z,100700.92
2022-10-10T13:37:16.574Z,100697.42
2022-10-10T13:39:47.512Z,100697.27
2022-10-10T13:42:36.637Z,100697.35
2022-10-10T13:45:30.103Z,100695.09
2022-10-10T13:48:00.422Z,100688.52
2022-10-10T13:50:53.580Z,100688.27
2022-10-10T13:53:29.240Z,100684.67
2022-10-10T13:56:18.178Z,100676.11
2022-10-10T13:58:58.884Z,100670.98
2022-10-10T14:01:33.120Z,100666.05
2022-10-10T14:04:32.491Z,100663.17
2022-10-10T14:07:11.523Z,100660.60
2022-10-10T14:09:53.372Z,100657.80
2022-10-10T14:12:35.156Z,100651.66
2022-10-10T14:15:25.592Z,100644.01
2022-10-10T14:17:54.334Z,100640.10
2022-10-10T14:20:24.209Z,100636.35
2022-10-10T14:22:53.148Z,100637.34
2022-10-10T14:25:22.068Z,100639.16
2022-10-10T14:27:50.858Z,100637.75
2022-10-10T14:30:21.892Z,100634.93
2022-10-10T14:32:50.809Z,100633.31
2022-10-10T14:35:19.536Z,100634.70
2022-10-10T14:37:48.261Z,100628.98
2022-10-10T14:40:22.688Z,100626.87
2022-10-10T14:42:56.451Z,100629.69
2022-10-10T14:45:28.446Z,100628.95
2022-10-10T14:47:57.235Z,100629.02
2022-10-10T14:50:35.586Z,100628.11
2022-10-10T14:53:04.931Z,100623.35
2022-10-10T14:55:33.767Z,100626.02
2022-10-10T14:58:02.485Z,100625.61
2022-10-10T15:00:31.247Z,100622.42
2022-10-10T15:02:59.881Z,100618.44
2022-10-10T15:05:28.545Z,100614.22
2022-10-10T15:07:57.191Z,100612.35
2022-10-10T15:10:34.409Z,100613.80
2022-10-10T15:13:04.042Z,100610.54
2022-10-10T15:15:32.957Z,100612.76
2022-10-10T15:18:01.659Z,100609.13
2022-10-10T15:20:33.108Z,100607.91
2022-10-10T15:23:06.817Z,100605.19
2022-10-10T15:25:35.895Z,100600.97
2022-10-10T15:28:05.400Z,100597.01
2022-10-10T15:30:34.171Z,100598.33
2022-10-10T15:33:02.835Z,100596.92
2022-10-10T15:35:50.257Z,100598.35
2022-10-10T15:38:20.262Z,100596.60
2022-10-10T15:41:09.231Z,100591.91
2022-10-10T15:43:47.324Z,100591.71
2022-10-10T15:46:15.946Z,100586.13
2022-10-10T15:48:45.480Z,100585.69
2022-10-10T15:51:14.329Z,100590.79
2022-10-10T15:53:43.212Z,100590.19
2022-10-10T15:56:16.619Z,100586.19
2022-10-10T15:58:45.338Z,100587.94
2022-10-10T16:01:20.077Z,100588.74
2022-10-10T16:03:49.736Z,100586.58
2022-10-10T16:06:21.048Z,100587.33
2022-10-10T16:08:52.754Z,100586.66
2022-10-10T16:11:28.499Z,100583.36
2022-10-10T16:13:57.269Z,100584.52
2022-10-10T16:16:28.569Z,100585.45
2022-10-10T16:18:58.141Z,100586.25
2022-10-10T16:21:27.831Z,100583.48
2022-10-10T16:23:58.303Z,100584.02
2022-10-10T16:26:33.069Z,100582.45
2022-10-10T16:29:02.826Z,100580.63
2022-10-10T16:31:35.289Z,100577.94
2022-10-10T16:34:04.094Z,100585.98
2022-10-10T16:36:36.987Z,100588.59
2022-10-10T16:39:05.825Z,100587.55
2022-10-10T16:41:47.510Z,100588.30
2022-10-10T16:44:17.848Z,100587.70
2022-10-10T16:46:46.727Z,100585.27
2022-10-10T16:49:20.713Z,100581.89
2022-10-10T16:51:50.470Z,100585.97
2022-10-10T16:54:19.213Z,100589.59
2022-10-10T16:56:55.068Z,100586.91
2022-10-10T16:59:23.978Z,100581.08
2022-10-10T17:01:53.997Z,100577.80
2022-10-10T17:04:25.483Z,100577.46
2022-10-10T17:06:54.173Z,100575.60
2022-10-10T17:09:23.934Z,100573.37
2022-10-10T17:11:52.756Z,100573.69
2022-10-10T17:14:21.536Z,100572.88
2022-10-10T17:19:38.868Z,100573.67
2022-10-10T17:22:08.124Z,100573.71
2022-10-10T17:24:37.380Z,100570.33
2022-10-10T17:27:06.217Z,100571.18
2022-10-10T17:29:34.929Z,100574.37
2022-10-10T17:32:06.559Z,100575.14
2022-10-10T17:34:36.419Z,100574.27
2022-10-10T17:37:05.439Z,100576.30
2022-10-10T17:39:34.354Z,100576.00
2022-10-10T17:42:05.232Z,100576.80
2022-10-10T17:44:40.358Z,100579.06
2022-10-10T17:47:12.908Z,100578.31
2022-10-10T17:49:46.513Z,100579.05
2022-10-10T17:52:20.225Z,100580.15
2022-10-10T17:54:49.847Z,100578.99
2022-10-10T17:57:20.177Z,100575.80
2022-10-10T17:59:48.970Z,100575.34
2022-10-10T18:02:19.631Z,100573.80
2022-10-10T18:04:48.307Z,100575.66
2022-10-10T18:07:18.648Z,100575.06
2022-10-10T18:09:51.868Z,100573.63
2022-10-10T18:12:21.013Z,100575.73
2022-10-10T18:14:49.703Z,100569.46
2022-10-10T18:17:18.439Z,100574.07
2022-10-10T18:19:47.676Z,100573.75
2022-10-10T18:22:16.839Z,100569.57
2022-10-10T18:24:45.604Z,100566.95
2022-10-10T18:27:14.298Z,100569.27
2022-10-10T18:29:43.051Z,100568.86
2022-10-10T18:32:12.583Z,100566.24
2022-10-10T18:34:41.424Z,100563.29
2022-10-10T18:37:10.730Z,100564.19
2022-10-10T18:39:41.593Z,100564.45
2022-10-10T18:42:10.326Z,100562.27
2022-10-10T18:44:39.525Z,100561.23
2022-10-10T18:47:08.351Z,100557.94
2022-10-10T18:49:37.471Z,100554.56
2022-10-10T18:52:07.865Z,100550.05
2022-10-10T18:54:37.297Z,100550.08
2022-10-10T18:57:06.032Z,100545.95
2022-10-10T18:59:34.696Z,100546.00
2022-10-10T19:02:03.418Z,100547.52
2022-10-10T19:04:32.201Z,100543.20
2022-10-10T19:07:02.393Z,100541.98
2022-10-10T19:09:31.513Z,100543.42
2022-10-10T19:12:00.386Z,100542.92
2022-10-10T19:14:29.276Z,100537.80
2022-10-10T19:16:58.079Z,100533.23
2022-10-10T19:19:28.355Z,100533.84
2022-10-10T19:21:57.141Z,100538.77
2022-10-10T19:24:25.956Z,100532.90
2022-10-10T19:26:56.944Z,100535.01
2022-10-10T19:29:26.885Z,100538.66
2022-10-10T19:31:56.270Z,100533.56
2022-10-10T19:34:25.097Z,100530.90
2022-10-10T19:36:54.147Z,100529.94
2022-10-10T19:39:22.999Z,100531.04
2022-10-10T19:41:51.818Z,100531.93
2022-10-10T19:44:20.467Z,100531.48
2022-10-10T19:46:49.192Z,100531.98
2022-10-10T19:49:17.940Z,100535.88
2022-10-10T19:51:46.570Z,100540.59
2022-10-10T19:54:15.239Z,100541.25
2022-10-10T19:56:43.927Z,100543.07
2022-10-10T19:59:12.683Z,100546.52
2022-10-10T20:01:41.429Z,100545.50
2022-10-10T20:04:10.150Z,100547.61
2022-10-10T20:06:41.347Z,100549.48
2022-10-10T20:09:11.976Z,100550.73
2022-10-10T20:11:40.816Z,100550.27
2022-10-10T20:14:10.586Z,100552.90
2022-10-10T20:16:39.485Z,100555.29
2022-10-10T20:19:08.681Z,100553.23
2022-10-10T20:21:37.576Z,100554.10
2022-10-10T20:24:10.305Z,100552.60
2022-10-10T20:26:39.920Z,100552.23
2022-10-10T20:29:08.922Z,100552.81
2022-10-10T20:31:38.295Z,100554.23
2022-10-10T20:34:07.394Z,100551.58
2022-10-10T20:36:36.644Z,100554.83
2022-10-10T20:39:09.792Z,100554.42
2022-10-10T20:41:40.428Z,100555.69
2022-10-10T20:44:14.248Z,100560.73
2022-10-10T20:46:45.623Z,100564.77
2022-10-10T20:49:21.882Z,100564.14
2022-10-10T20:51:51.968Z,100566.36
2022-10-10T20:54:23.987Z,100569.41
2022-10-10T20:56:52.624Z,100575.08
2022-10-10T20:59:27.056Z,100577.71
2022-10-10T21:01:56.456Z,100577.10
2022-10-10T21:04:26.232Z,100579.00
2022-10-10T21:06:54.993Z,100582.61
2022-10-10T21:09:24.024Z,100583.52
2022-10-10T21:11:52.875Z,100584.45
2022-10-10T21:14:21.723Z,100580.98
2022-10-10T21:16:50.819Z,100577.45
2022-10-10T21:19:20.422Z,100578.00
2022-10-10T21:21:49.395Z,100581.83
2022-10-10T21:24:18.477Z,100581.48
2022-10-10T21:26:49.346Z,100584.40
2022-10-10T21:29:18.350Z,100581.86
2022-10-10T21:31:47.281Z,100579.89
2022-10-10T21:34:19.006Z,100576.80
2022-10-10T21:36:47.827Z,100573.58
2022-10-10T21:39:16.982Z,100574.67
2022-10-10T21:41:45.795Z,100582.09
2022-10-10T21:44:16.035Z,100584.55
2022-10-10T21:46:45.040Z,100582.48
2022-10-10T21:49:13.769Z,100584.80
2022-10-10T21:51:48.080Z,100585.73
2022-10-10T21:54:16.886Z,100587.45
2022-10-10T21:56:45.732Z,100587.66
2022-10-10T21:59:14.477Z,100592.19
2022-10-10T22:01:44.591Z,100594.07
2022-10-10T22:04:13.397Z,100594.42
2022-10-10T22:06:42.631Z,100597.41
2022-10-10T22:09:11.479Z,100598.66
2022-10-10T22:11:40.266Z,100603.14
2022-10-10T22:14:09.036Z,100600.81
2022-10-10T22:16:37.824Z,100605.92
2022-10-10T22:19:06.583Z,100605.66
2022-10-10T22:21:35.425Z,100601.91
2022-10-10T22:24:08.117Z,100599.98
2022-10-10T22:26:37.138Z,100601.90
2022-10-10T22:29:05.783Z,100600.84
2022-10-10T22:31:37.946Z,100602.08
2022-10-10T22:34:07.525Z,100601.19
2022-10-10T22:36:36.192Z,100602.02
2022-10-10T22:39:05.842Z,100603.71
2022-10-10T22:41:34.906Z,100601.61
2022-10-10T22:44:04.584Z,100599.34
2022-10-10T22:46:33.543Z,100605.27
2022-10-10T22:49:02.184Z,100606.02
2022-10-10T22:51:30.949Z,100606.56
2022-10-10T22:53:59.691Z,100603.05
2022-10-10T22:56:28.422Z,100604.92
2022-10-10T22:58:57.187Z,100605.96
2022-10-10T23:01:26.667Z,100610.63
2022-10-10T23:04:00.509Z,100612.52
2022-10-10T23:06:29.638Z,100613.17
2022-10-10T23:08:58.391Z,100612.71
2022-10-10T23:11:27.330Z,100616.61
2022-10-10T23:13:56.099Z,100619.03
2022-10-10T23:16:25.032Z,100623.19
2022-10-10T23:18:53.764Z,100630.87
2022-10-10T23:21:22.988Z,100632.67
2022-10-10T23:23:52.003Z,100633.83
2022-10-10T23:26:21.048Z,100631.05
2022-10-10T23:28:50.976Z,100626.80
2022-10-10T23:31:19.909Z,100627.85
2022-10-10T23:33:48.667Z,100629.03
2022-10-10T23:36:17.468Z,100630.30
2022-10-10T23:38:47.057Z,100633.08
2022-10-10T23:41:15.854Z,100632.52
2022-10-10T23:43:44.960Z,100631.89
2022-10-10T23:46:13.898Z,100626.45
2022-10-10T23:48:43.253Z,100630.21
2022-10-10T23:51:12.081Z,100634.09
2022-10-10T23:53:40.781Z,100628.89
2022-10-10T23:56:10.477Z,100631.35
2022-10-10T23:58:39.203Z,100633.84
